Time;durP1;ratioP1;P1;durP2;ratioP2;P2;SDS_P1;SDS_P2;PMS_P1;PMS_P2;Temp;Humidity;BMP_temperature;BMP_pressure;BME280_temperature;BME280_humidity;BME280_pressure;Samples;Min_cycle;Max_cycle;Signal;HPM_P1;HPM_P2
2022/03/11 00:02:22;;;;;;;11.50;8.40;;;18.70;51.50;;;;;;5014790;28;20084;-79
2022/03/11 00:04:48;;;;;;;10.40;7.35;;;18.70;51.40;;;;;;5014508;28;20049;-79
2022/03/11 00:07:14;;;;;;;9.82;7.07;;;18.70;51.40;;;;;;5014701;28;20030;-80
2022/03/11 00:09:41;;;;;;;10.88;7.95;;;18.70;51.30;;;;;;5014496;28;20022;-82
2022/03/11 00:12:08;;;;;;;9.55;7.43;;;18.60;51.40;;;;;;5014523;28;20078;-81
2022/03/11 00:14:34;;;;;;;10.88;7.88;;;18.60;51.30;;;;;;5014392;28;20026;-81
2022/03/11 00:17:00;;;;;;;10.27;7.93;;;18.60;51.20;;;;;;5014380;28;20478;-85
2022/03/11 00:19:25;;;;;;;10.10;7.28;;;18.60;51.30;;;;;;5015077;28;20103;-83
2022/03/11 00:21:51;;;;;;;11.40;7.95;;;18.60;51.30;;;;;;5014762;28;20037;-83
2022/03/11 00:24:17;;;;;;;10.60;8.32;;;18.60;51.30;;;;;;5014596;28;20498;-82
2022/03/11 00:26:42;;;;;;;10.35;7.05;;;18.50;51.20;;;;;;5014546;28;20083;-80
2022/03/11 00:29:08;;;;;;;12.52;8.57;;;18.50;51.20;;;;;;5014692;28;20025;-85
2022/03/11 00:31:34;;;;;;;11.48;8.20;;;18.50;51.20;;;;;;5013646;28;20034;-81
2022/03/11 00:33:59;;;;;;;10.15;7.43;;;18.50;51.10;;;;;;5014913;28;20030;-82
2022/03/11 00:36:25;;;;;;;10.00;7.75;;;18.50;51.10;;;;;;5015028;28;20024;-80
2022/03/11 00:38:51;;;;;;;10.43;7.75;;;18.40;51.00;;;;;;5014521;28;20058;-82
2022/03/11 00:41:17;;;;;;;12.52;8.48;;;18.40;51.00;;;;;;5013940;28;20498;-82
2022/03/11 00:43:43;;;;;;;12.48;7.82;;;18.40;51.00;;;;;;5013968;28;20030;-77
2022/03/11 00:46:09;;;;;;;10.27;8.52;;;18.40;51.00;;;;;;5013761;28;20540;-80
2022/03/11 00:48:34;;;;;;;9.88;7.93;;;18.40;50.90;;;;;;4996453;28;20026;-80
2022/03/11 00:51:00;;;;;;;10.98;8.10;;;18.40;51.00;;;;;;5014420;28;20030;-79
2022/03/11 00:53:27;;;;;;;11.52;8.48;;;18.30;50.80;;;;;;5014604;28;20033;-81
2022/03/11 00:55:54;;;;;;;9.90;7.18;;;18.30;50.90;;;;;;5013760;28;20058;-82
2022/03/11 00:58:19;;;;;;;11.40;8.10;;;18.30;50.90;;;;;;5014095;28;20076;-81
2022/03/11 01:00:45;;;;;;;10.35;7.97;;;18.30;50.90;;;;;;5013283;28;20042;-82
2022/03/11 01:03:10;;;;;;;12.30;7.95;;;18.20;50.90;;;;;;5013765;28;20025;-79
2022/03/11 01:05:36;;;;;;;10.77;7.72;;;18.30;51.00;;;;;;5013416;28;20055;-79
2022/03/11 01:08:02;;;;;;;9.88;7.68;;;18.30;51.00;;;;;;5013731;28;20033;-80
2022/03/11 01:10:28;;;;;;;10.68;7.75;;;18.20;50.90;;;;;;5013698;28;20507;-84
2022/03/11 01:12:54;;;;;;;11.05;8.32;;;18.20;50.90;;;;;;5014026;28;20101;-79
2022/03/11 01:15:20;;;;;;;12.95;7.38;;;18.20;50.90;;;;;;4996018;28;20486;-77
2022/03/11 01:17:45;;;;;;;9.95;7.60;;;18.20;50.90;;;;;;5013299;28;20462;-79
2022/03/11 01:20:11;;;;;;;10.32;7.70;;;18.20;50.90;;;;;;5013490;28;20030;-82
2022/03/11 01:22:38;;;;;;;10.60;7.97;;;18.20;50.90;;;;;;5013226;28;20029;-82
2022/03/11 01:25:05;;;;;;;9.70;7.30;;;18.20;50.80;;;;;;5013224;28;20462;-80
2022/03/11 01:27:31;;;;;;;9.70;7.43;;;18.10;50.80;;;;;;5013264;28;20026;-81
2022/03/11 01:29:57;;;;;;;11.05;7.65;;;18.10;50.70;;;;;;5013814;28;20022;-86
2022/03/11 01:32:22;;;;;;;10.43;7.88;;;18.10;50.70;;;;;;5013238;28;20030;-84
2022/03/11 01:34:48;;;;;;;9.75;7.55;;;18.10;50.70;;;;;;5013172;28;20061;-82
2022/03/11 01:37:14;;;;;;;9.02;7.18;;;18.10;50.70;;;;;;5013724;28;20435;-80
2022/03/11 01:39:39;;;;;;;9.80;7.03;;;18.10;50.70;;;;;;5012399;28;20117;-76
2022/03/11 01:42:06;;;;;;;9.18;6.82;;;18.10;50.70;;;;;;5012945;28;20029;-77
2022/03/11 01:44:31;;;;;;;10.45;7.78;;;18.10;50.70;;;;;;5011139;28;20056;-77
2022/03/11 01:46:57;;;;;;;9.95;7.22;;;18.00;50.60;;;;;;5012920;28;20065;-78
2022/03/11 01:49:23;;;;;;;11.55;8.20;;;18.00;50.60;;;;;;5012883;28;20018;-77
2022/03/11 01:51:49;;;;;;;8.93;6.93;;;18.00;50.60;;;;;;5012605;28;20399;-77
2022/03/11 01:54:15;;;;;;;8.57;6.32;;;18.00;50.50;;;;;;5011625;28;20100;-77
2022/03/11 01:56:41;;;;;;;12.43;8.43;;;18.00;50.50;;;;;;5012472;28;20041;-76
2022/03/11 01:59:08;;;;;;;10.65;7.20;;;17.90;50.40;;;;;;4995077;28;20014;-76
2022/03/11 02:01:33;;;;;;;9.88;6.90;;;18.00;50.50;;;;;;5012670;28;20030;-84
2022/03/11 02:03:59;;;;;;;8.77;6.70;;;18.00;50.50;;;;;;5012336;28;20160;-76
2022/03/11 02:06:26;;;;;;;9.38;6.65;;;18.00;50.40;;;;;;5012770;28;20030;-79
2022/03/11 02:08:52;;;;;;;9.35;7.03;;;17.90;50.40;;;;;;4994629;28;20022;-78
2022/03/11 02:11:19;;;;;;;9.57;6.65;;;17.90;50.30;;;;;;4994796;28;20029;-76
2022/03/11 02:13:47;;;;;;;9.18;6.47;;;17.90;50.30;;;;;;5012063;28;20018;-76
2022/03/11 02:16:30;;;;;;;9.88;7.13;;;17.90;50.30;;;;;;5012474;28;20482;-76
2022/03/11 02:18:56;;;;;;;8.75;6.63;;;17.90;50.30;;;;;;4994324;28;20041;-77
2022/03/11 02:21:23;;;;;;;9.25;6.97;;;17.90;50.30;;;;;;5011074;28;20079;-80
2022/03/11 02:23:51;;;;;;;9.52;6.82;;;17.90;50.30;;;;;;5012034;28;20520;-77
2022/03/11 02:26:19;;;;;;;11.77;7.00;;;17.80;50.20;;;;;;5012206;28;20486;-76
2022/03/11 02:28:47;;;;;;;8.70;6.53;;;17.80;50.20;;;;;;5011953;28;20025;-76
2022/03/11 02:31:13;;;;;;;9.73;6.75;;;17.80;50.10;;;;;;5012107;28;20460;-79
2022/03/11 02:33:39;;;;;;;9.48;6.97;;;17.80;50.10;;;;;;5010066;28;20468;-80
2022/03/11 02:36:06;;;;;;;9.65;6.70;;;17.80;50.20;;;;;;5012181;28;20025;-80
2022/03/11 02:38:31;;;;;;;10.00;7.43;;;17.80;50.20;;;;;;5011449;28;20470;-81
2022/03/11 02:40:57;;;;;;;8.82;6.70;;;17.70;50.10;;;;;;5010952;28;20069;-78
2022/03/11 02:43:24;;;;;;;8.73;6.32;;;17.70;50.10;;;;;;5011975;28;20493;-77
2022/03/11 02:45:50;;;;;;;9.05;6.20;;;17.70;50.10;;;;;;5011887;28;20034;-77
2022/03/11 02:48:16;;;;;;;9.57;6.22;;;17.70;50.10;;;;;;5011877;28;20030;-78
2022/03/11 02:50:42;;;;;;;8.55;6.07;;;17.70;50.00;;;;;;5010369;28;20092;-77
2022/03/11 02:53:08;;;;;;;7.75;5.60;;;17.70;50.00;;;;;;5011596;28;20029;-77
2022/03/11 02:55:33;;;;;;;7.57;6.00;;;17.70;50.00;;;;;;5011741;28;20025;-78
2022/03/11 02:57:59;;;;;;;8.18;5.60;;;17.70;50.00;;;;;;5011673;28;20079;-82
2022/03/11 03:00:25;;;;;;;7.93;6.00;;;17.70;50.00;;;;;;4994383;28;20030;-77
2022/03/11 03:02:50;;;;;;;9.10;5.93;;;17.70;50.00;;;;;;5011467;28;20034;-81
2022/03/11 03:05:17;;;;;;;8.35;6.15;;;17.70;49.90;;;;;;5011719;28;20026;-81
2022/03/11 03:07:43;;;;;;;9.32;6.18;;;17.60;49.80;;;;;;5011471;28;20033;-79
2022/03/11 03:10:10;;;;;;;7.97;5.07;;;17.70;49.90;;;;;;5012030;28;20490;-76
2022/03/11 03:12:38;;;;;;;8.40;5.40;;;17.60;49.90;;;;;;5011904;28;20026;-79
2022/03/11 03:15:04;;;;;;;6.53;5.05;;;17.60;49.90;;;;;;5011671;28;20022;-84
2022/03/11 03:17:30;;;;;;;6.60;5.15;;;17.60;49.90;;;;;;5011402;28;20028;-81
2022/03/11 03:19:56;;;;;;;7.53;5.78;;;17.60;50.00;;;;;;5011888;28;20030;-81
2022/03/11 03:22:21;;;;;;;6.90;5.47;;;17.60;49.90;;;;;;5011590;28;20433;-80
2022/03/11 03:24:47;;;;;;;6.85;5.43;;;17.60;49.90;;;;;;5011387;28;20022;-84
2022/03/11 03:27:14;;;;;;;8.48;5.10;;;17.60;49.90;;;;;;5011248;28;20026;-79
2022/03/11 03:29:39;;;;;;;6.95;5.35;;;17.60;49.90;;;;;;5011565;28;20018;-80
2022/03/11 03:32:05;;;;;;;7.75;5.32;;;17.50;49.80;;;;;;5011467;28;20120;-76
2022/03/11 03:34:33;;;;;;;7.05;5.10;;;17.50;49.80;;;;;;5009879;28;20029;-80
2022/03/11 03:37:01;;;;;;;7.00;5.32;;;17.50;49.80;;;;;;5011337;28;20033;-79
2022/03/11 03:39:27;;;;;;;7.82;5.55;;;17.50;49.70;;;;;;5011662;28;20026;-79
2022/03/11 03:41:54;;;;;;;6.97;4.78;;;17.50;49.70;;;;;;5009686;28;20115;-79
2022/03/11 03:44:20;;;;;;;6.45;4.80;;;17.50;49.70;;;;;;5011409;28;20524;-77
2022/03/11 03:46:46;;;;;;;7.43;5.28;;;17.50;49.70;;;;;;5011161;28;20478;-79
2022/03/11 03:49:11;;;;;;;7.10;5.22;;;17.50;49.70;;;;;;5011226;28;20086;-77
2022/03/11 03:51:40;;;;;;;6.88;5.07;;;17.50;49.70;;;;;;5010681;28;20026;-82
2022/03/11 03:54:07;;;;;;;6.72;4.57;;;17.50;49.70;;;;;;4993876;28;20022;-81
2022/03/11 03:56:36;;;;;;;7.40;4.72;;;17.40;49.70;;;;;;5010979;28;20022;-78
2022/03/11 03:59:06;;;;;;;7.60;4.72;;;17.50;49.70;;;;;;5011325;28;20018;-79
2022/03/11 04:01:33;;;;;;;6.63;3.83;;;17.40;49.60;;;;;;5010809;28;20034;-85
2022/03/11 04:03:59;;;;;;;6.03;4.28;;;17.40;49.60;;;;;;5010923;28;20413;-76
2022/03/11 04:06:25;;;;;;;6.38;4.88;;;17.40;49.60;;;;;;5011039;28;20113;-77
2022/03/11 04:08:51;;;;;;;6.88;5.05;;;17.40;49.60;;;;;;5010794;28;20665;-77
2022/03/11 04:11:16;;;;;;;8.13;5.13;;;17.40;49.60;;;;;;5011027;28;20033;-80
2022/03/11 04:13:43;;;;;;;6.60;4.95;;;17.40;49.60;;;;;;5010794;28;20073;-80
2022/03/11 04:16:08;;;;;;;5.88;4.00;;;17.40;49.60;;;;;;5012646;28;20084;-80
2022/03/11 04:18:34;;;;;;;6.32;4.20;;;17.40;49.70;;;;;;5015803;28;20081;-83
2022/03/11 04:21:00;;;;;;;5.68;3.78;;;17.40;49.70;;;;;;5015208;28;20501;-88
2022/03/11 04:23:25;;;;;;;7.43;4.93;;;17.30;49.60;;;;;;4997686;28;20422;-81
2022/03/11 04:25:51;;;;;;;5.68;4.10;;;17.30;49.60;;;;;;5008448;28;20034;-80
2022/03/11 04:28:17;;;;;;;5.55;3.80;;;17.30;49.60;;;;;;5014268;28;20025;-81
2022/03/11 04:30:43;;;;;;;7.50;4.22;;;17.30;49.60;;;;;;5014380;28;20029;-80
2022/03/11 04:33:08;;;;;;;6.18;4.43;;;17.30;49.60;;;;;;5013984;28;20513;-81
2022/03/11 04:35:34;;;;;;;5.60;4.35;;;17.30;49.60;;;;;;5014270;28;20044;-79
2022/03/11 04:38:00;;;;;;;7.28;5.20;;;17.30;49.50;;;;;;5012870;28;20024;-77
2022/03/11 04:40:26;;;;;;;6.43;4.45;;;17.30;49.50;;;;;;5013701;28;20406;-79
2022/03/11 04:42:51;;;;;;;8.45;4.50;;;17.30;49.50;;;;;;5014022;28;20030;-77
2022/03/11 04:45:17;;;;;;;4.78;3.88;;;17.20;49.40;;;;;;5013848;28;20029;-75
2022/03/11 04:47:44;;;;;;;5.55;4.05;;;17.20;49.40;;;;;;5014001;28;20460;-80
2022/03/11 04:50:09;;;;;;;5.45;4.35;;;17.20;49.50;;;;;;4996103;28;20413;-78
2022/03/11 04:52:35;;;;;;;5.75;4.47;;;17.20;49.40;;;;;;5014135;28;20029;-79
2022/03/11 04:55:02;;;;;;;5.82;4.25;;;17.20;49.40;;;;;;5013708;28;20037;-79
2022/03/11 04:57:27;;;;;;;6.00;4.28;;;17.20;49.40;;;;;;4996545;28;20091;-81
2022/03/11 04:59:53;;;;;;;5.93;4.22;;;17.20;49.40;;;;;;5013904;28;20026;-80
2022/03/11 05:02:29;;;;;;;5.50;4.00;;;17.20;49.40;;;;;;5013128;28;20030;-83
2022/03/11 05:04:54;;;;;;;;;;;17.20;49.40;;;;;;5014135;28;20100;-83
2022/03/11 05:07:20;;;;;;;5.38;4.00;;;17.20;49.40;;;;;;5013659;28;19940;-79
2022/03/11 05:09:46;;;;;;;7.43;4.50;;;17.20;49.50;;;;;;5013798;28;20391;-80
2022/03/11 05:12:12;;;;;;;6.07;4.38;;;17.10;49.40;;;;;;5013493;28;20426;-77
2022/03/11 05:14:38;;;;;;;6.03;4.15;;;17.10;49.40;;;;;;5013613;28;20030;-82
2022/03/11 05:17:04;;;;;;;6.13;3.70;;;17.10;49.40;;;;;;5013122;28;20041;-78
2022/03/11 05:19:30;;;;;;;5.50;4.10;;;17.10;49.30;;;;;;5013346;28;20018;-81
2022/03/11 05:21:55;;;;;;;6.40;3.95;;;17.10;49.40;;;;;;5013820;28;20092;-77
2022/03/11 05:24:21;;;;;;;6.18;4.05;;;17.10;49.40;;;;;;5013082;28;20030;-79
2022/03/11 05:26:48;;;;;;;5.10;3.95;;;17.10;49.30;;;;;;5012988;28;20402;-79
2022/03/11 05:29:15;;;;;;;6.47;4.57;;;17.10;49.20;;;;;;5011944;28;20481;-76
2022/03/11 05:31:41;;;;;;;5.80;4.35;;;17.10;49.30;;;;;;5011699;28;20033;-79
2022/03/11 05:34:07;;;;;;;7.63;5.20;;;17.10;49.30;;;;;;5012988;28;20041;-76
2022/03/11 05:36:35;;;;;;;6.20;4.60;;;17.10;49.30;;;;;;5013094;28;20058;-76
2022/03/11 05:39:01;;;;;;;6.28;4.25;;;17.10;49.30;;;;;;5013145;28;20029;-76
2022/03/11 05:41:27;;;;;;;5.47;4.30;;;17.10;49.30;;;;;;5012596;28;20056;-77
2022/03/11 05:43:53;;;;;;;5.85;4.20;;;17.10;49.30;;;;;;4995281;28;20482;-77
2022/03/11 05:46:19;;;;;;;8.18;4.40;;;17.10;49.30;;;;;;5012623;28;20378;-77
2022/03/11 05:48:45;;;;;;;5.55;4.28;;;17.10;49.30;;;;;;5012456;28;20037;-82
2022/03/11 05:51:10;;;;;;;8.15;4.97;;;17.10;49.20;;;;;;5012616;28;20470;-77
2022/03/11 05:53:36;;;;;;;5.32;3.58;;;17.00;49.20;;;;;;5012214;28;20030;-77
2022/03/11 05:56:01;;;;;;;5.82;4.13;;;17.00;49.20;;;;;;5013040;28;20068;-77
2022/03/11 05:58:27;;;;;;;5.68;3.85;;;17.00;49.20;;;;;;5012891;28;20474;-78
2022/03/11 06:00:53;;;;;;;6.53;4.22;;;17.00;49.20;;;;;;4994566;28;20034;-81
2022/03/11 06:03:18;;;;;;;5.15;3.75;;;17.00;49.20;;;;;;5012551;28;20018;-79
2022/03/11 06:05:44;;;;;;;7.32;4.18;;;17.00;49.30;;;;;;5012894;28;20113;-81
2022/03/11 06:08:10;;;;;;;5.30;3.90;;;17.00;49.20;;;;;;5012635;28;20068;-79
2022/03/11 06:10:35;;;;;;;5.70;3.70;;;17.00;49.30;;;;;;5010480;28;20485;-80
2022/03/11 06:13:01;;;;;;;5.70;3.95;;;17.00;49.30;;;;;;5011714;28;20501;-77
2022/03/11 06:15:27;;;;;;;5.68;3.95;;;17.00;49.30;;;;;;5011789;28;20095;-78
2022/03/11 06:17:52;;;;;;;9.30;4.55;;;16.90;49.30;;;;;;4999874;28;20022;-75
2022/03/11 06:20:18;;;;;;;5.72;4.05;;;16.90;49.20;;;;;;5011901;28;20080;-78
2022/03/11 06:22:52;;;;;;;5.75;4.13;;;16.90;49.30;;;;;;5012173;28;20450;-77
2022/03/11 06:25:18;;;;;;;6.57;3.80;;;16.90;49.20;;;;;;5012061;28;20064;-77
2022/03/11 06:27:45;;;;;;;5.55;3.78;;;16.90;49.20;;;;;;5010163;28;20026;-83
2022/03/11 06:30:11;;;;;;;4.90;3.70;;;16.90;49.20;;;;;;5010467;28;20014;-78
2022/03/11 06:32:45;;;;;;;6.00;3.63;;;16.90;49.20;;;;;;5010700;28;20033;-76
2022/03/11 06:35:15;;;;;;;5.80;4.13;;;16.90;49.20;;;;;;5011272;28;20398;-78
2022/03/11 06:37:42;;;;;;;5.10;3.78;;;16.90;49.30;;;;;;5011539;28;20028;-79
2022/03/11 06:40:09;;;;;;;6.95;4.80;;;16.90;49.30;;;;;;5010934;28;20431;-81
2022/03/11 06:42:35;;;;;;;5.50;4.20;;;16.90;49.40;;;;;;4993518;28;20030;-80
2022/03/11 06:45:01;;;;;;;5.43;3.65;;;16.90;49.50;;;;;;5011779;28;20029;-81
2022/03/11 06:47:27;;;;;;;5.35;3.90;;;16.90;49.40;;;;;;5011138;28;20037;-79
2022/03/11 06:49:52;;;;;;;7.70;4.70;;;16.90;49.40;;;;;;5011520;28;20018;-79
2022/03/11 06:52:18;;;;;;;7.35;4.10;;;16.90;49.40;;;;;;4993327;28;20038;-78
2022/03/11 06:54:44;;;;;;;6.75;4.47;;;16.90;49.70;;;;;;5011229;28;20030;-78
2022/03/11 06:57:10;;;;;;;8.63;4.25;;;16.90;50.00;;;;;;5010515;28;20092;-77
2022/03/11 06:59:35;;;;;;;7.80;4.30;;;16.90;50.00;;;;;;5011165;28;20021;-79
2022/03/11 07:02:01;;;;;;;6.68;3.92;;;16.90;50.50;;;;;;5011402;28;20041;-78
2022/03/11 07:04:26;;;;;;;7.80;3.88;;;16.90;50.70;;;;;;4993390;28;20430;-79
2022/03/11 07:06:52;;;;;;;9.57;4.40;;;16.90;50.90;;;;;;5011275;28;20108;-80
2022/03/11 07:09:18;;;;;;;6.55;4.43;;;16.90;51.10;;;;;;5010746;28;20442;-79
2022/03/11 07:11:46;;;;;;;8.05;4.85;;;16.90;51.20;;;;;;5011238;28;20113;-80
2022/03/11 07:14:12;;;;;;;11.68;5.38;;;16.90;51.20;;;;;;4993236;28;20512;-77
2022/03/11 07:16:37;;;;;;;9.25;4.53;;;17.00;51.40;;;;;;5010473;28;20393;-78
2022/03/11 07:19:03;;;;;;;8.30;5.22;;;16.90;51.60;;;;;;5010964;28;20124;-79
2022/03/11 07:21:29;;;;;;;7.28;4.75;;;17.00;51.80;;;;;;4995187;28;20039;-80
2022/03/11 07:23:56;;;;;;;8.52;4.47;;;17.00;51.80;;;;;;5009867;28;20026;-78
2022/03/11 07:26:22;;;;;;;6.55;4.38;;;17.00;51.50;;;;;;5009587;28;20026;-77
2022/03/11 07:28:48;;;;;;;10.60;4.10;;;17.00;51.40;;;;;;5009881;28;20026;-78
2022/03/11 07:31:14;;;;;;;8.68;4.38;;;16.90;51.40;;;;;;5009817;28;20014;-77
2022/03/11 07:33:39;;;;;;;7.20;4.25;;;17.00;51.40;;;;;;5009474;28;20036;-78
2022/03/11 07:36:05;;;;;;;9.05;4.75;;;17.00;51.40;;;;;;5008875;28;20029;-78
2022/03/11 07:38:31;;;;;;;7.90;5.28;;;16.90;50.90;;;;;;5006803;28;20026;-82
2022/03/11 07:40:58;;;;;;;10.70;4.75;;;17.00;51.50;;;;;;5009709;28;20069;-82
2022/03/11 07:43:25;;;;;;;7.15;4.43;;;17.00;51.30;;;;;;5009388;28;20099;-80
2022/03/11 07:45:52;;;;;;;6.30;3.90;;;17.10;51.30;;;;;;5007234;28;20025;-76
2022/03/11 07:48:18;;;;;;;5.15;3.70;;;17.10;51.30;;;;;;5009414;28;20444;-78
2022/03/11 07:50:45;;;;;;;8.63;4.85;;;17.00;51.20;;;;;;5009763;28;20425;-77
2022/03/11 07:53:11;;;;;;;8.80;6.07;;;17.10;51.20;;;;;;5015685;28;20025;-77
2022/03/11 07:55:36;;;;;;;9.65;6.75;;;17.10;50.70;;;;;;5014215;28;20029;-77
2022/03/11 07:58:03;;;;;;;10.00;8.10;;;17.10;51.20;;;;;;5015016;28;20033;-76
2022/03/11 08:00:28;;;;;;;12.55;9.48;;;17.10;51.10;;;;;;5014402;28;20062;-81
2022/03/11 08:02:54;;;;;;;13.63;9.73;;;17.10;51.10;;;;;;5014935;28;20061;-79
2022/03/11 08:05:20;;;;;;;11.27;8.60;;;17.10;51.10;;;;;;5011678;28;20045;-77
2022/03/11 08:07:50;;;;;;;11.32;8.57;;;17.20;51.30;;;;;;5015619;28;20076;-79
2022/03/11 08:10:17;;;;;;;8.88;7.43;;;17.20;51.30;;;;;;5014615;28;20076;-80
2022/03/11 08:12:42;;;;;;;10.02;7.93;;;17.20;51.30;;;;;;5016226;28;20576;-76
2022/03/11 08:15:11;;;;;;;11.10;7.35;;;17.20;51.30;;;;;;5006855;28;20030;-77
2022/03/11 08:17:38;;;;;;;11.27;8.02;;;17.30;51.50;;;;;;5016115;28;20022;-76
2022/03/11 08:20:05;;;;;;;11.75;7.38;;;17.30;51.50;;;;;;5016340;28;20110;-77
2022/03/11 08:22:34;;;;;;;12.50;7.07;;;17.30;51.60;;;;;;5015337;28;20482;-76
2022/03/11 08:25:00;;;;;;;10.27;6.28;;;17.40;51.80;;;;;;5018353;28;20021;-77
2022/03/11 08:27:25;;;;;;;8.13;6.55;;;17.30;51.80;;;;;;5017465;28;20030;-77
2022/03/11 08:29:51;;;;;;;11.60;7.03;;;17.40;51.70;;;;;;5016137;28;20145;-77
2022/03/11 08:32:17;;;;;;;8.70;6.55;;;17.40;51.70;;;;;;5016490;28;20045;-76
2022/03/11 08:34:42;;;;;;;8.02;6.30;;;17.40;51.70;;;;;;5014226;28;20419;-76
2022/03/11 08:37:08;;;;;;;8.52;5.65;;;17.40;51.70;;;;;;5013280;28;20033;-77
2022/03/11 08:39:34;;;;;;;6.97;5.28;;;17.40;51.60;;;;;;5014402;28;20026;-76
2022/03/11 08:41:59;;;;;;;7.75;5.50;;;17.40;51.60;;;;;;5014124;28;20093;-88
2022/03/11 08:44:25;;;;;;;6.95;5.10;;;17.40;51.50;;;;;;5014553;28;20540;-88
2022/03/11 08:46:50;;;;;;;8.13;5.43;;;17.50;51.50;;;;;;5015147;28;20393;-83
2022/03/11 08:49:16;;;;;;;7.18;5.13;;;17.50;51.40;;;;;;5014199;28;20030;-76
2022/03/11 08:51:43;;;;;;;6.60;4.82;;;17.50;51.40;;;;;;5014031;28;20021;-76
2022/03/11 08:54:09;;;;;;;8.10;4.72;;;17.50;51.20;;;;;;5013593;28;20452;-77
2022/03/11 08:56:35;;;;;;;5.65;4.32;;;17.60;51.30;;;;;;5014553;28;20021;-77
2022/03/11 08:59:00;;;;;;;5.85;4.13;;;17.60;51.30;;;;;;5013843;28;20022;-77
2022/03/11 09:01:26;;;;;;;6.20;4.70;;;17.60;51.30;;;;;;5013608;28;20807;-78
2022/03/11 09:03:52;;;;;;;7.05;4.55;;;17.60;51.30;;;;;;5013665;28;20048;-79
2022/03/11 09:06:17;;;;;;;7.25;4.05;;;17.60;51.30;;;;;;5012867;28;20116;-80
2022/03/11 09:08:44;;;;;;;5.72;4.18;;;17.60;51.20;;;;;;5014028;28;20026;-85
2022/03/11 09:11:10;;;;;;;5.88;4.10;;;17.60;51.30;;;;;;5013374;28;20026;-76
2022/03/11 09:13:36;;;;;;;5.35;4.13;;;17.60;51.10;;;;;;5014089;28;20060;-75
2022/03/11 09:16:04;;;;;;;5.20;4.25;;;17.70;51.20;;;;;;5013349;28;20032;-75
2022/03/11 09:18:29;;;;;;;6.47;4.65;;;17.70;51.10;;;;;;5012836;28;20498;-76
2022/03/11 09:20:55;;;;;;;8.02;5.07;;;17.70;51.10;;;;;;5012960;28;20045;-78
2022/03/11 09:23:22;;;;;;;6.88;3.97;;;17.70;51.00;;;;;;5013117;28;20029;-75
2022/03/11 09:25:48;;;;;;;6.07;3.92;;;17.80;51.10;;;;;;5014323;28;20026;-90
2022/03/11 09:28:13;;;;;;;4.97;3.85;;;17.80;51.10;;;;;;5013521;28;20025;-82
2022/03/11 09:30:39;;;;;;;5.55;4.00;;;17.80;51.10;;;;;;5013493;28;20406;-88
2022/03/11 09:33:04;;;;;;;5.53;3.75;;;17.80;51.10;;;;;;5012883;28;20034;-76
2022/03/11 09:35:30;;;;;;;6.65;3.13;;;17.80;51.00;;;;;;5012181;28;20026;-76
2022/03/11 09:37:56;;;;;;;7.43;3.60;;;17.80;51.00;;;;;;5012590;28;20026;-75
2022/03/11 09:40:22;;;;;;;5.85;3.63;;;17.80;51.00;;;;;;5012672;28;20042;-78
2022/03/11 09:42:50;;;;;;;5.75;3.47;;;17.80;51.00;;;;;;5013078;28;20026;-76
2022/03/11 09:45:19;;;;;;;4.85;3.58;;;17.90;51.00;;;;;;5013053;28;20386;-81
2022/03/11 09:47:45;;;;;;;4.68;3.25;;;17.90;51.00;;;;;;5013550;28;20029;-84
2022/03/11 09:50:11;;;;;;;5.30;3.80;;;17.90;50.90;;;;;;4995529;28;20183;-78
2022/03/11 09:52:37;;;;;;;5.68;3.53;;;17.90;50.90;;;;;;4995283;28;20494;-78
2022/03/11 09:55:04;;;;;;;4.82;3.50;;;17.90;50.90;;;;;;5013365;28;20093;-78
2022/03/11 09:57:30;;;;;;;4.65;3.30;;;18.00;50.90;;;;;;5012993;28;20036;-77
2022/03/11 09:59:56;;;;;;;4.13;2.88;;;18.00;50.90;;;;;;5013082;28;20030;-80
2022/03/11 10:02:22;;;;;;;5.95;3.13;;;18.00;50.80;;;;;;4996095;28;20037;-79
2022/03/11 10:04:53;;;;;;;4.22;3.13;;;18.00;50.90;;;;;;5014672;28;20021;-79
2022/03/11 10:07:30;;;;;;;4.38;2.88;;;18.10;50.80;;;;;;5015965;28;20026;-87
2022/03/11 10:09:57;;;;;;;5.97;3.47;;;18.10;50.80;;;;;;5010907;28;20561;-77
2022/03/11 10:12:28;;;;;;;4.95;3.17;;;18.10;50.70;;;;;;5008821;28;20159;-76
2022/03/11 10:15:04;;;;;;;4.97;3.33;;;18.10;50.70;;;;;;5009883;28;20062;-85
2022/03/11 10:17:37;;;;;;;4.47;3.13;;;18.20;50.70;;;;;;5010370;28;20559;-77
2022/03/11 10:20:14;;;;;;;7.15;3.33;;;18.20;50.60;;;;;;5011162;28;20034;-88
2022/03/11 10:22:41;;;;;;;3.92;2.85;;;18.20;50.80;;;;;;4993572;28;20458;-85
2022/03/11 10:25:20;;;;;;;6.10;3.10;;;18.20;50.60;;;;;;5011592;28;20029;-76
2022/03/11 10:28:08;;;;;;;4.57;2.70;;;18.30;50.60;;;;;;5011835;28;20037;-85
2022/03/11 10:30:39;;;;;;;3.90;2.80;;;18.30;50.50;;;;;;5008173;28;20030;-85
2022/03/11 10:33:08;;;;;;;4.45;2.90;;;18.40;50.50;;;;;;5011864;28;20040;-83
2022/03/11 10:35:38;;;;;;;4.93;2.70;;;18.30;50.50;;;;;;4993046;28;20022;-87
2022/03/11 10:38:07;;;;;;;4.95;2.85;;;18.40;50.60;;;;;;5005550;28;20025;-77
2022/03/11 10:40:35;;;;;;;3.45;2.58;;;18.40;50.60;;;;;;5011837;28;20041;-77
2022/03/11 10:43:14;;;;;;;3.80;2.63;;;18.40;50.40;;;;;;5011931;28;20026;-76
2022/03/11 10:45:52;;;;;;;8.07;3.10;;;18.50;50.40;;;;;;5011889;28;20026;-76
2022/03/11 10:48:38;;;;;;;4.40;2.80;;;18.50;50.30;;;;;;4993817;28;20030;-79
2022/03/11 10:51:08;;;;;;;4.55;2.72;;;18.50;50.30;;;;;;4995249;28;20064;-85
2022/03/11 10:53:38;;;;;;;2.85;2.08;;;18.60;50.30;;;;;;4995734;28;20052;-90
2022/03/11 10:56:07;;;;;;;5.00;2.60;;;18.70;50.20;;;;;;5012274;28;20393;-76
2022/03/11 10:58:34;;;;;;;4.65;2.63;;;18.70;50.10;;;;;;5012684;28;20021;-80
2022/03/11 11:01:00;;;;;;;4.78;2.40;;;18.80;50.10;;;;;;4995124;28;20041;-81
2022/03/11 11:03:26;;;;;;;3.60;2.58;;;18.80;50.00;;;;;;5011379;28;20837;-77
2022/03/11 11:05:52;;;;;;;3.80;2.60;;;18.90;49.90;;;;;;5012108;28;20383;-89
2022/03/11 11:08:18;;;;;;;8.18;2.53;;;18.90;49.90;;;;;;5011749;28;20072;-79
2022/03/11 11:10:45;;;;;;;5.13;2.58;;;19.00;49.90;;;;;;5008875;28;20025;-79
2022/03/11 11:13:11;;;;;;;3.88;2.42;;;19.00;49.90;;;;;;5010156;28;20022;-77
2022/03/11 11:15:41;;;;;;;16.42;3.50;;;19.10;49.90;;;;;;5011049;28;20470;-78
2022/03/11 11:18:17;;;;;;;2.42;2.08;;;19.10;50.10;;;;;;5011483;28;20049;-77
2022/03/11 11:20:46;;;;;;;3.92;2.22;;;19.20;50.00;;;;;;5011246;28;20045;-80
2022/03/11 11:23:13;;;;;;;2.95;2.10;;;19.30;49.60;;;;;;5011063;28;20033;-77
2022/03/11 11:25:42;;;;;;;3.00;1.98;;;19.40;49.40;;;;;;5011249;28;20153;-78
2022/03/11 11:28:10;;;;;;;5.50;2.33;;;19.50;49.20;;;;;;4997299;28;20018;-79
2022/03/11 11:30:37;;;;;;;3.15;2.15;;;19.70;49.00;;;;;;4997850;28;20026;-77
2022/03/11 11:33:03;;;;;;;4.18;2.03;;;19.80;49.40;;;;;;5015624;28;20029;-77
2022/03/11 11:35:30;;;;;;;3.88;1.95;;;19.90;47.90;;;;;;5015008;28;20025;-77
2022/03/11 11:37:58;;;;;;;3.03;2.20;;;19.90;48.50;;;;;;5015152;28;20026;-77
2022/03/11 11:40:24;;;;;;;7.93;2.33;;;20.00;48.40;;;;;;5014768;28;20589;-78
2022/03/11 11:43:26;;;;;;;3.63;2.03;;;20.00;48.20;;;;;;5013844;28;20105;-77
2022/03/11 11:45:53;;;;;;;3.53;2.00;;;20.20;48.20;;;;;;5015076;28;20034;-77
2022/03/11 11:48:43;;;;;;;3.08;1.95;;;20.30;48.10;;;;;;5014713;28;20018;-77
2022/03/11 11:51:31;;;;;;;3.00;1.83;;;20.40;47.90;;;;;;5014799;28;20034;-76
2022/03/11 11:54:08;;;;;;;3.17;2.00;;;20.50;47.70;;;;;;4978166;28;20033;-77
2022/03/11 11:56:46;;;;;;;4.10;1.85;;;20.60;47.50;;;;;;5015328;28;20022;-77
2022/03/11 11:59:29;;;;;;;3.25;1.88;;;20.80;47.40;;;;;;5014621;28;20022;-78
2022/03/11 12:01:56;;;;;;;5.53;1.83;;;20.90;47.20;;;;;;4997028;28;20030;-77
2022/03/11 12:04:36;;;;;;;4.45;1.90;;;21.00;47.00;;;;;;5014313;28;20030;-78
2022/03/11 12:07:05;;;;;;;2.47;1.90;;;21.10;46.80;;;;;;5014865;28;20060;-78
2022/03/11 12:09:40;;;;;;;3.03;1.75;;;21.20;46.70;;;;;;5014259;28;20029;-78
2022/03/11 12:12:06;;;;;;;3.75;1.60;;;21.30;46.60;;;;;;5014160;28;20022;-82
2022/03/11 12:14:52;;;;;;;4.10;1.90;;;21.20;46.50;;;;;;5014784;28;20029;-78
2022/03/11 12:17:34;;;;;;;;;;;21.20;46.80;;;;;;5014388;28;20425;-77
2022/03/11 12:20:25;;;;;;;3.70;1.85;;;21.30;46.90;;;;;;5013545;28;20076;-77
2022/03/11 12:23:08;;;;;;;3.20;1.60;;;21.30;46.80;;;;;;5013130;28;20414;-78
2022/03/11 12:25:54;;;;;;;7.93;1.70;;;21.40;46.80;;;;;;5013987;28;20034;-78
2022/03/11 12:28:42;;;;;;;2.75;1.77;;;21.50;46.90;;;;;;4996530;28;20449;-78
2022/03/11 12:31:11;;;;;;;4.68;2.05;;;21.50;47.10;;;;;;5013941;28;20034;-76
2022/03/11 12:33:48;;;;;;;4.65;1.77;;;21.60;47.30;;;;;;5014521;28;20057;-79
2022/03/11 12:36:22;;;;;;;5.38;2.08;;;21.90;46.10;;;;;;4996366;28;20081;-77
2022/03/11 12:38:49;;;;;;;9.77;2.00;;;22.30;46.30;;;;;;4995933;28;20129;-78
2022/03/11 12:41:16;;;;;;;9.10;2.67;;;22.50;45.80;;;;;;5012444;28;20065;-79
2022/03/11 12:43:44;;;;;;;11.10;2.70;;;22.70;44.80;;;;;;5014033;28;20068;-82
2022/03/11 12:46:11;;;;;;;23.15;4.25;;;22.70;44.80;;;;;;5013789;28;20034;-79
2022/03/11 12:48:42;;;;;;;32.22;6.75;;;22.80;44.90;;;;;;5014172;28;20026;-78